Time;durP1;ratioP1;P1;durP2;ratioP2;P2;SDS_P1;SDS_P2;PMS_P1;PMS_P2;Temp;Humidity;BMP_temperature;BMP_pressure;BME280_temperature;BME280_humidity;BME280_pressure;Samples;Min_cycle;Max_cycle;Signal;HPM_P1;HPM_P2
2022/11/02 00:02:47;;;;;;;3.17;1.65;;;;;;;11.63;90.54;101334.16;6248871;28;20497;-72
2022/11/02 00:05:48;;;;;;;6.88;0.70;;;;;;;11.61;91.21;101324.63;6248575;28;20046;-72
2022/11/02 00:08:51;;;;;;;6.43;1.05;;;;;;;11.60;91.33;101318.50;6248775;28;20413;-73
2022/11/02 00:11:52;;;;;;;0.80;0.60;;;;;;;11.62;90.44;101313.16;6248456;28;20049;-72
2022/11/02 00:14:54;;;;;;;3.88;0.63;;;;;;;11.59;91.34;101316.81;6248468;28;20075;-72
2022/11/02 00:17:59;;;;;;;4.43;0.90;;;;;;;11.58;92.00;101314.22;6249126;28;20058;-72
2022/11/02 00:21:01;;;;;;;4.50;0.88;;;;;;;11.57;91.47;101304.63;6248178;28;20053;-72
2022/11/02 00:24:06;;;;;;;3.60;0.80;;;;;;;11.56;92.86;101303.78;6248454;28;20046;-72
2022/11/02 00:27:07;;;;;;;10.43;0.93;;;;;;;11.48;92.86;101305.91;6248654;28;20056;-72
2022/11/02 00:30:10;;;;;;;2.75;0.68;;;;;;;11.50;91.86;101290.06;6247954;28;20057;-72
2022/11/02 00:33:12;;;;;;;4.97;1.17;;;;;;;11.55;91.80;101299.44;6248098;28;20049;-71
2022/11/02 00:36:13;;;;;;;3.00;0.80;;;;;;;11.55;91.22;101295.97;6247949;28;20052;-72
2022/11/02 00:39:16;;;;;;;5.10;0.68;;;;;;;11.54;91.73;101289.84;6248376;28;20152;-72
2022/11/02 00:42:17;;;;;;;3.25;0.50;;;;;;;11.54;92.04;101294.28;6247670;28;20061;-72
2022/11/02 00:45:19;;;;;;;2.53;0.50;;;;;;;11.60;91.50;101288.69;6247671;28;20054;-72
2022/11/02 00:48:20;;;;;;;2.38;0.60;;;;;;;11.61;91.26;101285.97;6247898;28;20053;-72
2022/11/02 00:51:22;;;;;;;3.45;0.77;;;;;;;11.64;91.58;101287.63;6247755;28;20057;-72
2022/11/02 00:54:24;;;;;;;3.00;0.60;;;;;;;11.62;92.07;101278.94;6247309;28;20053;-72
2022/11/02 00:57:26;;;;;;;4.63;0.93;;;;;;;11.66;91.51;101283.97;6247809;28;20528;-72
2022/11/02 01:00:27;;;;;;;3.38;0.77;;;;;;;11.71;90.55;101277.63;6247380;28;20513;-72
2022/11/02 01:03:29;;;;;;;2.78;0.55;;;;;;;11.71;90.59;101267.09;6247551;28;20045;-72
2022/11/02 01:06:31;;;;;;;4.78;0.68;;;;;;;11.70;91.44;101266.25;6247003;28;20053;-72
2022/11/02 01:09:34;;;;;;;3.70;0.47;;;;;;;11.72;90.27;101271.44;6246594;28;20088;-71
2022/11/02 01:12:36;;;;;;;7.13;1.00;;;;;;;11.73;90.98;101273.16;6247165;28;20053;-72
2022/11/02 01:15:37;;;;;;;3.65;0.50;;;;;;;11.77;90.93;101272.06;6246963;28;20489;-72
2022/11/02 01:18:40;;;;;;;8.93;1.85;;;;;;;11.76;91.19;101265.94;6247167;28;20052;-72
2022/11/02 01:21:41;;;;;;;6.93;0.75;;;;;;;11.79;90.88;101271.06;6246763;28;20489;-72
2022/11/02 01:24:44;;;;;;;5.20;1.20;;;;;;;11.81;90.91;101257.78;6246898;28;20050;-72
2022/11/02 01:27:45;;;;;;;2.42;0.50;;;;;;;11.79;91.72;101259.66;6246920;28;20527;-72
2022/11/02 01:30:48;;;;;;;2.55;0.63;;;;;;;11.84;90.47;101252.41;6247021;28;20064;-72
2022/11/02 01:33:49;;;;;;;1.90;0.45;;;;;;;11.86;91.01;101259.31;6246189;28;20045;-72
2022/11/02 01:36:51;;;;;;;5.38;0.73;;;;;;;11.87;90.43;101247.84;6247032;28;20064;-72
2022/11/02 01:39:53;;;;;;;2.53;0.80;;;;;;;11.88;91.10;101244.28;6246227;28;20402;-72
2022/11/02 01:42:55;;;;;;;4.63;1.27;;;;;;;11.88;90.87;101230.28;6246695;28;20065;-72
2022/11/02 01:46:00;;;;;;;2.33;0.70;;;;;;;11.88;91.29;101227.63;6246240;28;20224;-72
2022/11/02 01:49:04;;;;;;;7.05;0.90;;;;;;;11.84;91.80;101239.25;6246644;28;20049;-72
2022/11/02 01:52:09;;;;;;;3.60;0.82;;;;;;;11.82;92.07;101239.34;6245862;28;20394;-72
2022/11/02 01:55:18;;;;;;;2.08;0.52;;;;;;;11.85;92.53;101235.69;6246322;28;20049;-72
2022/11/02 01:58:19;;;;;;;3.83;0.87;;;;;;;11.86;92.14;101224.25;6246658;28;20132;-72
2022/11/02 02:01:21;;;;;;;6.20;0.85;;;;;;;11.93;92.06;101236.16;6245618;28;20769;-71
2022/11/02 02:04:23;;;;;;;1.58;0.68;;;;;;;11.95;91.38;101217.66;6246131;28;20056;-72
2022/11/02 02:07:27;;;;;;;2.28;0.60;;;;;;;12.00;91.27;101227.00;6246118;28;20076;-71
2022/11/02 02:10:30;;;;;;;5.00;1.35;;;;;;;12.03;90.87;101204.91;6245994;28;20049;-72
2022/11/02 02:13:31;;;;;;;1.55;0.50;;;;;;;12.08;90.43;101218.69;6246285;28;20046;-72
2022/11/02 02:16:50;;;;;;;1.45;0.57;;;;;;;12.11;91.02;101214.13;6245902;28;20049;-72
2022/11/02 02:19:56;;;;;;;3.22;0.60;;;;;;;12.12;90.59;101226.34;6245218;28;20053;-72
2022/11/02 02:23:31;;;;;;;4.93;1.10;;;;;;;12.12;92.14;101222.88;6246097;28;20049;-72
2022/11/02 02:27:05;;;;;;;5.55;1.30;;;;;;;12.14;92.18;101223.66;6232610;28;20527;-72
2022/11/02 02:30:10;;;;;;;1.95;0.70;;;;;;;12.12;93.15;101221.09;6245296;28;20049;-72
2022/11/02 02:33:14;;;;;;;3.05;1.13;;;;;;;12.09;93.29;101218.63;6245654;28;20049;-72
2022/11/02 02:36:24;;;;;;;6.63;1.00;;;;;;;12.09;93.33;101213.38;6245210;28;20056;-72
2022/11/02 02:39:30;;;;;;;4.18;1.25;;;;;;;12.10;93.01;101209.78;6245939;28;20049;-72
2022/11/02 02:42:35;;;;;;;4.65;0.60;;;;;;;12.11;93.29;101208.00;6245044;28;20049;-72
2022/11/02 02:45:43;;;;;;;10.65;2.38;;;;;;;12.13;93.35;101206.16;6245179;28;20053;-72
2022/11/02 02:48:47;;;;;;;1.48;0.55;;;;;;;12.17;92.91;101205.03;6245505;28;20057;-72
2022/11/02 02:51:50;;;;;;;2.05;0.70;;;;;;;12.16;92.82;101209.47;6245320;28;20057;-72
2022/11/02 02:54:55;;;;;;;6.47;0.70;;;;;;;12.14;93.65;101208.72;6245032;28;20065;-72
2022/11/02 02:58:00;;;;;;;3.65;0.73;;;;;;;12.13;93.27;101204.38;6245239;28;20501;-72
2022/11/02 03:01:05;;;;;;;2.70;0.65;;;;;;;12.17;92.99;101202.41;6245243;28;20055;-72
2022/11/02 03:04:11;;;;;;;6.03;1.08;;;;;;;12.15;94.28;101186.69;6244882;28;20436;-72
2022/11/02 03:07:17;;;;;;;1.73;0.30;;;;;;;12.14;93.44;101194.69;6245461;28;20046;-72
2022/11/02 03:10:22;;;;;;;2.40;0.63;;;;;;;12.11;94.29;101190.41;6244745;28;20061;-72
2022/11/02 03:13:39;;;;;;;2.20;0.65;;;;;;;12.16;92.62;101187.53;6245256;28;20056;-72
2022/11/02 03:16:58;;;;;;;5.93;0.82;;;;;;;12.13;92.87;101187.72;6243055;28;20643;-72
2022/11/02 03:20:10;;;;;;;7.43;0.70;;;;;;;12.12;93.63;101193.91;6245068;28;20057;-72
2022/11/02 03:23:17;;;;;;;3.40;0.60;;;;;;;12.14;93.68;101186.78;6245090;28;20057;-72
2022/11/02 03:26:26;;;;;;;2.38;0.63;;;;;;;12.11;94.65;101190.41;6244606;28;20443;-72
2022/11/02 03:29:36;;;;;;;5.32;0.52;;;;;;;12.12;94.59;101188.63;6244904;28;20416;-72
2022/11/02 03:32:46;;;;;;;4.97;0.90;;;;;;;12.08;95.19;101189.72;6248525;28;20053;-73
2022/11/02 03:35:52;;;;;;;2.40;0.68;;;;;;;12.03;95.49;101194.38;6249399;28;20504;-72
2022/11/02 03:38:59;;;;;;;7.63;1.35;;;;;;;11.95;96.56;101186.03;6249609;28;20053;-72
2022/11/02 03:42:03;;;;;;;4.10;1.23;;;;;;;11.91;97.46;101193.25;6249152;28;20072;-72
2022/11/02 03:45:10;;;;;;;6.05;1.00;;;;;;;11.86;98.63;101187.38;6249068;28;20560;-72
2022/11/02 03:48:16;;;;;;;3.17;0.63;;;;;;;11.88;98.31;101188.13;6249370;28;20049;-74
2022/11/02 03:51:20;;;;;;;5.47;0.75;;;;;;;11.81;99.43;101187.56;6248887;28;20406;-74
2022/11/02 03:54:29;;;;;;;2.30;0.60;;;;;;;11.72;100.00;101192.44;6248832;28;20049;-72
2022/11/02 03:57:36;;;;;;;6.13;0.85;;;;;;;11.67;100.00;101196.19;6249458;28;20046;-74
2022/11/02 04:00:46;;;;;;;4.15;0.65;;;;;;;11.64;100.00;101195.47;6248726;28;20057;-74
2022/11/02 04:03:49;;;;;;;1.33;0.85;;;;;;;11.63;100.00;101199.91;6248805;28;20555;-74
2022/11/02 04:06:51;;;;;;;2.45;0.70;;;;;;;11.62;100.00;101199.94;6249116;28;20053;-74
2022/11/02 04:09:53;;;;;;;3.42;0.95;;;;;;;11.60;100.00;101201.81;6248688;28;20144;-74
2022/11/02 04:16:13;;;;;;;4.78;0.60;;;;;;;11.61;100.00;101199.09;6248662;28;20053;-74
2022/11/02 04:19:27;;;;;;;3.33;1.42;;;;;;;11.61;100.00;101191.19;6248833;28;20049;-74
2022/11/02 04:25:52;;;;;;;;;;;;;;;11.64;100.00;101192.84;6248707;28;20061;-74
2022/11/02 04:28:53;;;;;;;4.63;0.80;;;;;;;11.61;100.00;101198.25;6248882;28;20291;-74
2022/11/02 04:31:55;;;;;;;3.28;0.75;;;;;;;11.65;100.00;101197.19;6247888;28;20068;-74
2022/11/02 04:34:56;;;;;;;3.95;0.77;;;;;;;11.69;100.00;101196.09;6248262;28;20057;-74
2022/11/02 04:44:53;;;;;;;1.00;0.43;;;;;;;11.78;100.00;101206.16;6172202;28;20050;-74
2022/11/02 04:48:00;;;;;;;5.03;0.80;;;;;;;11.80;100.00;101212.19;6172055;28;20051;-74
2022/11/02 04:51:02;;;;;;;9.45;1.38;;;;;;;11.84;100.00;101202.38;6244379;28;20042;-74
2022/11/02 04:54:04;;;;;;;3.78;1.33;;;;;;;11.81;100.00;101210.41;6247572;28;20072;-74
2022/11/02 04:57:05;;;;;;;6.43;0.98;;;;;;;11.83;100.00;101216.50;6247818;28;20053;-73
2022/11/02 05:00:08;;;;;;;6.95;0.88;;;;;;;11.93;99.85;101217.72;6247541;28;20049;-74
2022/11/02 05:03:09;;;;;;;2.40;0.95;;;;;;;11.94;99.83;101208.88;6247612;28;20045;-74
2022/11/02 05:06:12;;;;;;;6.05;1.08;;;;;;;12.05;98.64;101214.44;6247711;28;20054;-74
2022/11/02 05:09:13;;;;;;;2.85;0.57;;;;;;;12.07;98.53;101217.00;6247605;28;20056;-74
2022/11/02 05:12:15;;;;;;;1.05;0.50;;;;;;;12.04;99.25;101212.75;6246924;28;20389;-73
2022/11/02 05:15:16;;;;;;;3.90;0.80;;;;;;;12.00;100.00;101211.22;6259651;28;20048;-74
2022/11/02 05:18:18;;;;;;;5.63;0.80;;;;;;;11.99;100.00;101216.53;6270046;28;20045;-73
2022/11/02 05:21:21;;;;;;;1.08;0.50;;;;;;;11.95;100.00;101222.94;6269689;28;20045;-74
2022/11/02 05:24:22;;;;;;;7.93;1.52;;;;;;;11.98;99.83;101228.84;6272621;28;20045;-74
2022/11/02 05:27:24;;;;;;;4.88;0.47;;;;;;;11.90;100.00;101224.00;6272912;28;20402;-73
2022/11/02 05:30:26;;;;;;;11.25;1.17;;;;;;;11.90;100.00;101231.06;6272481;28;20053;-74
2022/11/02 05:33:28;;;;;;;4.10;0.75;;;;;;;11.89;100.00;101224.91;6251173;28;20049;-74
2022/11/02 05:36:31;;;;;;;6.47;0.70;;;;;;;11.96;100.00;101229.88;6247611;28;20045;-73
2022/11/02 05:39:32;;;;;;;5.43;0.70;;;;;;;11.96;100.00;101224.63;6258812;28;20170;-73
2022/11/02 05:42:34;;;;;;;3.30;1.55;;;;;;;11.89;100.00;101230.19;6259703;28;20045;-74
2022/11/02 05:45:36;;;;;;;5.53;0.98;;;;;;;11.91;100.00;101222.22;6257492;28;20048;-73
2022/11/02 05:48:38;;;;;;;2.72;0.80;;;;;;;11.90;100.00;101231.91;6259300;28;20424;-74
2022/11/02 05:51:41;;;;;;;4.60;1.05;;;;;;;11.80;100.00;101230.63;6256771;28;20149;-74
2022/11/02 05:54:42;;;;;;;3.75;1.02;;;;;;;11.72;100.00;101232.81;6253511;28;20058;-73
2022/11/02 05:57:43;;;;;;;5.60;1.30;;;;;;;11.75;100.00;101234.41;6262979;28;20049;-73
2022/11/02 06:00:45;;;;;;;1.63;0.93;;;;;;;11.81;99.96;101234.97;6269680;28;20544;-73
2022/11/02 06:03:46;;;;;;;5.18;1.45;;;;;;;11.77;99.87;101238.69;6258418;28;20046;-73
2022/11/02 06:06:49;;;;;;;2.03;0.30;;;;;;;11.81;99.60;101240.25;6257332;28;20134;-74
2022/11/02 06:09:51;;;;;;;5.45;1.08;;;;;;;11.93;97.37;101244.06;6258804;28;20080;-73
2022/11/02 06:12:56;;;;;;;3.28;1.42;;;;;;;12.00;97.07;101241.97;6256917;28;20084;-73
2022/11/02 06:15:59;;;;;;;2.72;0.52;;;;;;;12.08;95.66;101247.69;6258006;28;20424;-73
2022/11/02 06:19:00;;;;;;;2.45;0.88;;;;;;;12.02;96.71;101246.22;6257937;28;20605;-73
2022/11/02 06:22:03;;;;;;;3.80;1.00;;;;;;;11.96;97.26;101258.88;6257544;28;20041;-73
2022/11/02 06:25:05;;;;;;;3.15;0.40;;;;;;;11.90;97.86;101258.25;6257608;28;20049;-73
2022/11/02 06:28:06;;;;;;;1.35;0.73;;;;;;;11.90;98.48;101255.63;6257185;28;20045;-73
2022/11/02 06:31:08;;;;;;;8.40;0.93;;;;;;;11.86;98.95;101261.97;6257635;28;20099;-73
2022/11/02 06:34:09;;;;;;;5.10;0.70;;;;;;;11.79;99.59;101265.78;6256376;28;20045;-73
2022/11/02 06:37:12;;;;;;;6.93;1.10;;;;;;;11.77;100.00;101269.44;6258750;28;20041;-73
2022/11/02 06:40:14;;;;;;;4.05;0.68;;;;;;;11.79;99.95;101280.75;6253831;28;20052;-73
2022/11/02 06:43:15;;;;;;;4.13;1.02;;;;;;;11.84;100.00;101284.03;6258253;28;20052;-73
2022/11/02 06:46:17;;;;;;;2.80;0.80;;;;;;;11.85;100.00;101286.56;6256499;28;20049;-73
2022/11/02 06:49:18;;;;;;;5.10;1.17;;;;;;;11.87;100.00;101283.88;6258331;28;20145;-73
2022/11/02 06:52:21;;;;;;;5.55;1.30;;;;;;;11.97;100.00;101293.00;6266053;28;20052;-73
2022/11/02 06:55:23;;;;;;;2.88;0.80;;;;;;;12.00;100.00;101294.66;6257862;28;20424;-73
2022/11/02 06:58:25;;;;;;;5.15;0.90;;;;;;;12.01;100.00;101301.63;6261749;28;20045;-73
2022/11/02 07:01:27;;;;;;;3.33;0.65;;;;;;;12.06;100.00;101304.88;6246420;28;20045;-73
2022/11/02 07:04:28;;;;;;;3.00;0.85;;;;;;;12.07;100.00;101312.69;6245687;28;20052;-73
2022/11/02 07:07:31;;;;;;;5.40;1.02;;;;;;;12.18;99.74;101309.53;6250209;28;20045;-73
2022/11/02 07:10:34;;;;;;;11.05;1.15;;;;;;;12.18;99.59;101309.53;6250941;28;20052;-73
2022/11/02 07:13:37;;;;;;;12.38;2.40;;;;;;;12.21;99.13;101316.41;6251744;28;20053;-73
2022/11/02 07:16:38;;;;;;;1.35;0.70;;;;;;;12.26;98.70;101319.66;6250907;28;20068;-73
2022/11/02 07:19:40;;;;;;;2.42;0.75;;;;;;;12.25;98.68;101328.50;6251433;28;20049;-73
2022/11/02 07:22:51;;;;;;;1.52;0.77;;;;;;;12.28;97.31;101323.94;6251193;28;20121;-73
2022/11/02 07:25:53;;;;;;;2.75;0.95;;;;;;;12.35;96.05;101341.16;6251024;28;20059;-74
2022/11/02 07:28:54;;;;;;;3.78;0.93;;;;;;;12.36;95.75;101327.03;6251197;28;20050;-73
2022/11/02 07:31:56;;;;;;;2.95;0.90;;;;;;;12.33;95.57;101328.97;6250334;28;20553;-74
2022/11/02 07:34:57;;;;;;;6.22;0.75;;;;;;;12.40;94.61;101333.00;6250574;28;20049;-73
2022/11/02 07:38:02;;;;;;;7.90;1.13;;;;;;;12.42;94.89;101344.31;6247992;28;20525;-73
2022/11/02 07:41:03;;;;;;;3.17;0.98;;;;;;;12.40;94.70;101341.75;6250208;28;20494;-72
2022/11/02 07:44:05;;;;;;;6.10;1.00;;;;;;;12.41;94.77;101345.25;6249861;28;20045;-74
2022/11/02 07:47:06;;;;;;;4.82;1.10;;;;;;;12.41;95.29;101355.78;6250830;28;20107;-73
2022/11/02 07:50:08;;;;;;;3.08;0.80;;;;;;;12.47;93.90;101360.75;6249308;28;20092;-74
2022/11/02 07:53:11;;;;;;;3.35;1.00;;;;;;;12.52;92.97;101363.13;6249667;28;20050;-73
2022/11/02 07:56:12;;;;;;;3.90;0.85;;;;;;;12.54;92.28;101364.78;6248982;28;20086;-73
2022/11/02 07:59:14;;;;;;;2.83;1.23;;;;;;;12.57;91.92;101363.75;6249151;28;20049;-73
2022/11/02 08:02:15;;;;;;;11.63;1.77;;;;;;;12.64;90.96;101381.81;6248409;28;20052;-74
2022/11/02 08:05:17;;;;;;;4.07;0.55;;;;;;;12.68;91.22;101366.69;6248019;28;20397;-74
2022/11/02 08:08:21;;;;;;;4.30;0.88;;;;;;;12.79;90.58;101376.69;6248438;28;20444;-73
2022/11/02 08:11:22;;;;;;;5.10;1.30;;;;;;;12.79;89.00;101372.25;6249496;28;20501;-74
2022/11/02 08:14:24;;;;;;;8.52;0.57;;;;;;;12.84;89.42;101383.41;6249638;28;20052;-73
2022/11/02 08:17:25;;;;;;;1.33;0.52;;;;;;;12.88;88.06;101384.09;6249200;28;20045;-74
2022/11/02 08:20:27;;;;;;;4.68;0.60;;;;;;;12.91;87.69;101381.31;6248169;28;20056;-75
2022/11/02 08:23:29;;;;;;;6.70;0.85;;;;;;;12.91;86.77;101374.25;6249655;28;20417;-73
2022/11/02 08:26:31;;;;;;;1.48;0.73;;;;;;;12.92;87.20;101385.66;6248166;28;20041;-75
2022/11/02 08:29:34;;;;;;;6.90;2.05;;;;;;;13.00;86.49;101391.38;6249515;28;20053;-76
2022/11/02 08:32:35;;;;;;;4.68;0.65;;;;;;;13.01;86.26;101385.16;6249172;28;20049;-74
2022/11/02 08:35:37;;;;;;;7.35;0.80;;;;;;;12.98;86.03;101397.66;6248920;28;20053;-74
2022/11/02 08:38:41;;;;;;;4.60;1.42;;;;;;;13.05;86.05;101391.97;6249727;28;20054;-74
2022/11/02 08:41:42;;;;;;;4.38;1.13;;;;;;;13.10;85.57;101397.00;6249174;28;20056;-74
2022/11/02 08:44:44;;;;;;;3.63;0.60;;;;;;;13.04;85.02;101395.56;6249377;28;20049;-75
2022/11/02 08:47:45;;;;;;;4.78;0.77;;;;;;;12.99;86.58;101400.22;6249464;28;20049;-76
2022/11/02 08:50:48;;;;;;;9.18;0.98;;;;;;;12.98;86.09;101403.78;6248859;28;20048;-74
2022/11/02 08:53:51;;;;;;;4.75;0.55;;;;;;;13.11;84.15;101406.63;6249015;28;20054;-75
2022/11/02 08:56:52;;;;;;;4.97;0.80;;;;;;;13.10;84.31;101416.34;6249079;28;20060;-75
2022/11/02 08:59:54;;;;;;;4.28;0.70;;;;;;;13.16;83.36;101436.25;6248793;28;20053;-76
2022/11/02 09:03:01;;;;;;;3.20;0.80;;;;;;;13.11;84.37;101415.41;6248830;28;20050;-74
2022/11/02 09:06:02;;;;;;;1.30;0.52;;;;;;;13.09;84.45;101422.56;6248402;28;20394;-74
2022/11/02 09:09:05;;;;;;;6.05;0.73;;;;;;;13.07;84.23;101420.91;6248738;28;20065;-74
2022/11/02 09:12:07;;;;;;;3.38;0.98;;;;;;;13.07;84.26;101440.22;6248330;28;20413;-74
2022/11/02 09:15:09;;;;;;;3.20;0.80;;;;;;;13.13;82.97;101436.44;6248254;28;20045;-74
2022/11/02 09:18:10;;;;;;;7.15;0.77;;;;;;;13.16;82.09;101436.25;6248614;28;20057;-75
2022/11/02 09:21:12;;;;;;;6.25;0.60;;;;;;;13.21;81.77;101442.16;6248066;28;20046;-75
2022/11/02 09:24:14;;;;;;;6.93;1.05;;;;;;;13.03;83.17;101453.66;6247921;28;20386;-73
2022/11/02 09:27:16;;;;;;;1.75;0.60;;;;;;;13.09;83.28;101446.31;6248346;28;20060;-75
2022/11/02 09:30:17;;;;;;;3.88;1.00;;;;;;;13.13;82.47;101452.28;6247024;28;20050;-74
2022/11/02 09:33:19;;;;;;;3.30;0.80;;;;;;;13.02;83.11;101458.09;6248134;28;20148;-74
2022/11/02 09:36:20;;;;;;;1.58;0.68;;;;;;;13.15;82.93;101469.72;6247736;28;20053;-74
2022/11/02 09:39:23;;;;;;;2.35;0.68;;;;;;;13.16;81.57;101457.38;6248188;28;20053;-75
2022/11/02 09:42:32;;;;;;;4.90;0.70;;;;;;;13.17;82.98;101467.88;6247109;28;20528;-74
2022/11/02 09:45:36;;;;;;;2.22;0.88;;;;;;;13.17;81.42;101457.31;6247544;28;20116;-73
2022/11/02 09:48:43;;;;;;;1.92;0.90;;;;;;;13.26;81.48;101470.97;6247713;28;20060;-73
2022/11/02 09:51:48;;;;;;;8.07;1.50;;;;;;;13.18;81.63;101466.09;6247613;28;20041;-74
2022/11/02 09:54:55;;;;;;;2.33;0.90;;;;;;;13.25;82.10;101478.03;6247239;28;20046;-74
2022/11/02 09:58:03;;;;;;;5.07;0.77;;;;;;;13.38;80.59;101480.88;6247888;28;20049;-74
2022/11/02 10:01:23;;;;;;;0.93;0.65;;;;;;;13.20;78.82;101488.81;6247234;28;20048;-73
2022/11/02 10:04:48;;;;;;;3.50;0.98;;;;;;;13.27;79.57;101476.19;6246923;28;20442;-72
2022/11/02 10:08:14;;;;;;;4.68;0.60;;;;;;;13.25;79.42;101485.09;6247406;28;20132;-73
2022/11/02 10:11:34;;;;;;;3.17;0.52;;;;;;;13.27;80.52;101484.09;6246756;28;20061;-73
2022/11/02 10:14:39;;;;;;;4.47;0.63;;;;;;;13.42;79.02;101493.00;6247029;28;20061;-73
2022/11/02 10:17:43;;;;;;;1.45;0.98;;;;;;;13.45;77.74;101493.69;6247296;28;20053;-73
2022/11/02 10:20:46;;;;;;;2.80;0.60;;;;;;;13.38;77.10;101499.38;6246634;28;20500;-73
2022/11/02 10:23:50;;;;;;;0.70;0.43;;;;;;;13.36;77.16;101509.16;6246594;28;20114;-73
2022/11/02 10:26:56;;;;;;;3.83;0.70;;;;;;;13.40;77.26;101513.34;6247164;28;20056;-74
2022/11/02 10:30:03;;;;;;;4.10;0.55;;;;;;;13.42;76.16;101508.84;6246952;28;20056;-73
2022/11/02 10:33:12;;;;;;;4.78;0.80;;;;;;;13.51;76.07;101523.34;6246642;28;20045;-73
2022/11/02 10:36:29;;;;;;;3.47;1.45;;;;;;;13.61;75.55;101521.91;6246743;28;20045;-73
2022/11/02 10:39:42;;;;;;;3.80;0.63;;;;;;;13.66;74.00;101518.06;6246936;28;20064;-73
2022/11/02 10:42:59;;;;;;;4.85;0.70;;;;;;;13.89;71.98;101535.31;6246715;28;20076;-72
2022/11/02 10:46:17;;;;;;;5.43;0.73;;;;;;;13.94;71.41;101543.00;6246444;28;20089;-70
2022/11/02 10:49:39;;;;;;;0.13;0.13;;;;;;;13.90;70.90;101552.91;6246621;28;20053;-72
2022/11/02 10:52:44;;;;;;;5.65;0.52;;;;;;;13.80;71.88;101553.47;6246453;28;20052;-73
2022/11/02 10:55:56;;;;;;;0.98;0.45;;;;;;;13.90;71.45;101542.34;6246105;28;20143;-73
2022/11/02 10:59:03;;;;;;;2.00;0.60;;;;;;;13.96;70.54;101549.06;6246643;28;20061;-73
2022/11/02 11:02:12;;;;;;;3.45;0.55;;;;;;;14.15;68.94;101552.41;6245945;28;20046;-73
2022/11/02 11:05:13;;;;;;;1.00;0.30;;;;;;;13.83;69.72;101572.66;6246344;28;20084;-72
2022/11/02 11:08:29;;;;;;;2.45;0.40;;;;;;;13.76;70.04;101580.97;6246313;28;20056;-72
2022/11/02 11:11:33;;;;;;;2.53;0.80;;;;;;;13.84;69.99;101571.72;6245895;28;20073;-73
2022/11/02 11:14:45;;;;;;;2.72;0.70;;;;;;;14.14;69.00;101579.78;6246140;28;20049;-73
2022/11/02 11:17:46;;;;;;;5.75;0.95;;;;;;;14.27;67.21;101589.69;6246414;28;20409;-73
2022/11/02 11:20:53;;;;;;;5.43;0.60;;;;;;;14.09;68.00;101602.13;6245990;28;20045;-72
2022/11/02 11:24:18;;;;;;;1.45;0.47;;;;;;;14.02;68.61;101598.94;6245823;28;20057;-73
2022/11/02 11:27:20;;;;;;;0.40;0.40;;;;;;;14.29;67.15;101607.16;6246539;28;20065;-74
2022/11/02 11:30:28;;;;;;;4.30;0.57;;;;;;;14.14;67.56;101608.84;6246108;28;20046;-74
2022/11/02 11:33:32;;;;;;;2.88;0.90;;;;;;;13.96;68.87;101609.84;6246148;28;20056;-73
2022/11/02 11:36:35;;;;;;;2.55;1.05;;;;;;;13.90;69.09;101616.31;6245899;28;20045;-73
2022/11/02 11:39:38;;;;;;;2.15;0.35;;;;;;;13.90;67.87;101618.13;6246032;28;20052;-72
2022/11/02 11:42:42;;;;;;;0.47;0.47;;;;;;;13.85;67.59;101615.72;6246195;28;20625;-73
2022/11/02 11:45:55;;;;;;;0.30;0.30;;;;;;;13.81;68.31;101621.25;6245452;28;20045;-73
2022/11/02 11:48:58;;;;;;;1.90;0.50;;;;;;;13.77;67.54;101614.41;6246251;28;20489;-72
2022/11/02 11:52:02;;;;;;;1.63;0.65;;;;;;;13.98;67.17;101626.47;6246490;28;20075;-74
2022/11/02 11:55:20;;;;;;;3.90;0.75;;;;;;;14.36;64.82;101620.91;6250346;28;20050;-73
2022/11/02 11:58:23;;;;;;;1.27;0.57;;;;;;;14.39;65.56;101623.34;6250377;28;20512;-73
2022/11/02 12:01:26;;;;;;;1.67;0.32;;;;;;;14.31;64.65;101634.38;6250393;28;20053;-73
2022/11/02 12:04:30;;;;;;;1.25;0.50;;;;;;;14.50;63.75;101621.03;6249896;28;20053;-73
2022/11/02 12:08:13;;;;;;;4.63;0.90;;;;;;;14.85;62.44;101618.16;6250446;28;20075;-73
2022/11/02 12:11:32;;;;;;;7.60;0.88;;;;;;;15.12;62.00;101631.59;6249899;28;20062;-73
2022/11/02 12:14:40;;;;;;;;;;;;;;;14.91;61.43;101657.53;6250029;28;20496;-74
2022/11/02 12:17:54;;;;;;;7.57;0.73;;;;;;;14.57;62.49;101645.31;6250309;28;20515;-74
2022/11/02 12:21:06;;;;;;;4.50;0.73;;;;;;;14.56;62.45;101648.91;6249406;28;20049;-73
2022/11/02 12:24:34;;;;;;;1.13;0.38;;;;;;;14.20;63.25;101664.03;6249658;28;20050;-73
2022/11/02 12:27:46;;;;;;;2.85;0.60;;;;;;;14.06;64.61;101661.28;6249718;28;20049;-73
2022/11/02 12:30:58;;;;;;;0.38;0.25;;;;;;;14.20;64.03;101663.19;6252834;28;20111;-73
2022/11/02 12:34:19;;;;;;;3.55;0.68;;;;;;;14.16;64.15;101656.34;6257037;28;20045;-73
2022/11/02 12:37:28;;;;;;;3.58;0.80;;;;;;;13.98;64.23;101657.31;6257303;28;20045;-73
2022/11/02 12:40:41;;;;;;;0.80;0.45;;;;;;;13.82;64.65;101654.66;6259648;28;20049;-73
2022/11/02 12:43:45;;;;;;;1.52;0.40;;;;;;;14.19;63.90;101661.47;6224369;28;20054;-74
2022/11/02 12:46:55;;;;;;;2.83;0.60;;;;;;;14.08;63.77;101663.81;6224908;28;20052;-73
2022/11/02 12:50:07;;;;;;;4.35;0.60;;;;;;;13.99;63.36;101672.25;6224484;28;20064;-73
2022/11/02 12:53:41;;;;;;;3.08;0.40;;;;;;;14.41;63.67;101664.66;6224615;28;20217;-73
2022/11/02 12:56:47;;;;;;;7.10;0.50;;;;;;;14.80;59.67;101658.13;6204673;28;20057;-73
2022/11/02 12:59:53;;;;;;;3.50;0.90;;;;;;;14.78;59.77;101661.81;6224174;28;20058;-74
2022/11/02 13:02:59;;;;;;;2.70;0.73;;;;;;;14.52;58.66;101669.38;6224269;28;20056;-73
2022/11/02 13:06:06;;;;;;;0.43;0.30;;;;;;;14.55;57.82;101677.16;6224076;28;20053;-73
2022/11/02 13:09:13;;;;;;;2.47;0.77;;;;;;;14.36;59.29;101665.88;6224217;28;20073;-74
2022/11/02 13:12:18;;;;;;;2.95;0.70;;;;;;;14.54;60.78;101675.47;6236842;28;20528;-73
2022/11/02 13:15:24;;;;;;;2.95;0.90;;;;;;;14.42;61.77;101676.94;6245735;28;20053;-73
2022/11/02 13:18:29;;;;;;;2.85;0.70;;;;;;;14.30;61.17;101688.19;6269927;28;20048;-74
2022/11/02 13:21:37;;;;;;;1.40;0.70;;;;;;;14.16;62.77;101675.69;6249445;28;20049;-73
2022/11/02 13:24:43;;;;;;;3.05;0.40;;;;;;;14.30;61.57;101680.25;6248177;28;20056;-73
2022/11/02 13:27:52;;;;;;;1.27;0.45;;;;;;;14.42;62.18;101687.53;6248436;28;20115;-74
2022/11/02 13:30:55;;;;;;;2.75;0.55;;;;;;;14.47;60.70;101674.91;6261360;28;20055;-73
2022/11/02 13:34:00;;;;;;;3.78;0.40;;;;;;;14.62;60.47;101675.88;6272291;28;20048;-73
2022/11/02 13:37:11;;;;;;;0.38;0.28;;;;;;;14.52;59.82;101681.75;6272964;28;20056;-73
2022/11/02 13:40:21;;;;;;;3.72;1.00;;;;;;;14.62;60.50;101686.44;6272421;28;20049;-73
2022/11/02 13:43:52;;;;;;;2.85;0.85;;;;;;;14.65;60.34;101690.72;6272989;28;20484;-73
2022/11/02 13:47:19;;;;;;;1.67;0.40;;;;;;;14.24;60.94;101693.81;6271383;28;20168;-73
2022/11/02 13:50:24;;;;;;;3.75;0.45;;;;;;;13.98;62.48;101691.69;6272022;28;20051;-73
2022/11/02 13:53:34;;;;;;;4.50;0.77;;;;;;;13.85;62.77;101697.63;6272347;28;20420;-74
2022/11/02 13:56:37;;;;;;;1.45;0.88;;;;;;;13.88;63.28;101692.16;6272109;28;20049;-74
2022/11/02 13:59:39;;;;;;;1.73;0.50;;;;;;;13.89;64.12;101682.44;6272303;28;20060;-72
2022/11/02 14:02:43;;;;;;;1.70;0.50;;;;;;;13.91;64.11;101680.59;6272164;28;20045;-73
2022/11/02 14:05:49;;;;;;;3.70;0.52;;;;;;;13.84;63.66;101690.59;6271798;28;20191;-74
2022/11/02 14:08:55;;;;;;;1.52;0.40;;;;;;;13.67;64.72;101691.50;6272060;28;20416;-74
2022/11/02 14:12:26;;;;;;;5.55;0.90;;;;;;;13.57;65.54;101686.75;6271725;28;20049;-74
2022/11/02 14:15:51;;;;;;;1.90;0.30;;;;;;;13.63;64.82;101703.16;6271120;28;20056;-74
2022/11/02 14:19:13;;;;;;;1.20;0.57;;;;;;;13.47;65.16;101704.00;6272087;28;20056;-74
2022/11/02 14:22:16;;;;;;;4.10;0.90;;;;;;;13.38;65.89;101711.44;6271308;28;20056;-73
2022/11/02 14:25:19;;;;;;;3.63;0.50;;;;;;;13.33;66.50;101712.59;6271524;28;20045;-74
2022/11/02 14:28:31;;;;;;;1.90;0.60;;;;;;;13.31;66.06;101709.19;6271637;28;20052;-74
2022/11/02 14:31:53;;;;;;;2.05;0.40;;;;;;;13.35;66.49;101713.38;6271455;28;20063;-73
2022/11/02 14:35:07;;;;;;;1.30;0.60;;;;;;;13.34;66.07;101707.22;6271577;28;20049;-73
2022/11/02 14:38:28;;;;;;;0.90;0.30;;;;;;;13.32;66.94;101709.09;6271554;28;20056;-74